Archival Weather

Chicago O'Hare International

Chicago, Illinois (KORD)

Report from: Saturday, December 31, 2022 7:51 PM CST
Current time: Tuesday, February 27, 2024 5:19 AM CST

Current weather – Weather history – Daily summaries
Weather forecast

Temperature2.2°C (36.0°F)
Wind chill-0.9°C (30.3°F)
Dew point-1.7°C (28.9°F)
Winds 6 kts (3.1 m/s, 6.9 mph) Southeast (140°)
Visibility8 mi. (12.9 km)
Clouds Ceiling: Broken clouds 8,500 ft. (2,591 m)
Broken clouds 11,000 ft. (3,353 m)
Altimeter29.87 in.Hg (1012 mB)
Relative humidity75 %
Density altitude-1,445 ft. (-440 m)
Sea-level pressure101.2 kPa (1012 mB, 29.90 in.Hg)
Remarks Automated weather observing station with precipitation discriminator
Flight conditions Visual Meteorological Conditions
Raw dataKORD 010151Z 14006KT 8SM BKN085 BKN110 02/M02 A2987 RMK AO2 SLP124 T00221017
An error has occurred. This application may no longer respond until reloaded. Reload 🗙